Time;durP1;ratioP1;P1;durP2;ratioP2;P2;SDS_P1;SDS_P2;PMS_P1;PMS_P2;Temp;Humidity;BMP_temperature;BMP_pressure;BME280_temperature;BME280_humidity;BME280_pressure;Samples;Min_cycle;Max_cycle;Signal;HPM_P1;HPM_P2
2023/02/18 00:01:23;;;;;;;2.50;1.50;;;;;;;9.34;84.31;99973.67;186117;1233;43690;-88
2023/02/18 00:05:25;;;;;;;1.70;0.50;;;;;;;9.23;81.34;99996.80;186117;1233;43753;-87
2023/02/18 00:09:28;;;;;;;3.70;0.70;;;;;;;9.14;78.35;99998.42;186139;1233;43800;-89
2023/02/18 00:13:32;;;;;;;0.60;0.50;;;;;;;9.08;77.66;100003.70;186388;1233;43811;-90
2023/02/18 00:17:35;;;;;;;2.00;0.70;;;;;;;8.99;78.57;100007.89;186322;1237;57982;-90
2023/02/18 00:21:38;;;;;;;3.50;0.60;;;;;;;8.92;77.24;100003.14;186205;1233;43738;-88
2023/02/18 00:25:40;;;;;;;0.30;0.30;;;;;;;8.96;75.89;100002.29;186004;1233;43741;-88
2023/02/18 00:29:42;;;;;;;6.10;0.70;;;;;;;8.95;77.27;99999.01;186051;1234;43743;-88
2023/02/18 00:33:44;;;;;;;1.60;0.70;;;;;;;8.93;75.18;99989.15;186011;1233;43770;-87
2023/02/18 00:37:46;;;;;;;1.50;0.60;;;;;;;8.92;74.51;100020.00;186290;1234;59527;-88
2023/02/18 00:41:48;;;;;;;2.30;1.30;;;;;;;8.90;72.70;99999.77;186337;1233;43721;-88
2023/02/18 00:45:50;;;;;;;0.70;0.50;;;;;;;9.00;71.39;100019.64;186360;1237;43693;-88
2023/02/18 00:49:51;;;;;;;3.20;0.70;;;;;;;8.96;70.48;100022.63;186395;1233;43694;-89
2023/02/18 00:53:54;;;;;;;1.70;0.80;;;;;;;8.87;71.59;100047.73;186428;1236;44088;-89
2023/02/18 00:57:56;;;;;;;2.80;0.60;;;;;;;8.81;71.87;100051.44;186383;1234;58584;-89
2023/02/18 01:01:58;;;;;;;4.90;0.50;;;;;;;8.69;73.49;100051.46;186351;1233;43827;-88
2023/02/18 01:06:00;;;;;;;2.50;0.40;;;;;;;8.60;73.36;100062.20;186338;1234;43731;-88
2023/02/18 01:10:03;;;;;;;3.80;0.60;;;;;;;8.52;73.70;100069.90;186185;1233;44142;-87
2023/02/18 01:14:06;;;;;;;5.40;1.00;;;;;;;8.44;74.83;100078.94;186176;1237;43725;-87
2023/02/18 01:18:09;;;;;;;0.90;0.30;;;;;;;8.38;76.23;100082.77;186379;1233;58428;-88
2023/02/18 01:22:11;;;;;;;0.90;0.80;;;;;;;8.21;78.69;100082.06;186464;1233;43803;-88
2023/02/18 01:26:13;;;;;;;5.70;1.30;;;;;;;8.04;80.58;100085.10;186231;1237;44086;-88
2023/02/18 01:30:16;;;;;;;0.80;0.80;;;;;;;7.87;82.59;100088.28;186354;1234;43642;-88
2023/02/18 01:34:19;;;;;;;4.70;1.40;;;;;;;7.74;84.82;100093.13;186286;1233;44011;-87
2023/02/18 01:38:22;;;;;;;7.50;1.90;;;;;;;7.60;87.33;100087.80;186334;1233;59307;-88
2023/02/18 01:42:26;;;;;;;2.90;0.90;;;;;;;7.62;86.34;100077.22;186185;1233;43895;-88
2023/02/18 01:46:28;;;;;;;2.50;1.10;;;;;;;7.85;82.50;100079.75;186301;1233;43646;-87
2023/02/18 01:50:33;;;;;;;5.40;1.40;;;;;;;7.95;79.80;100083.65;186454;1233;44179;-88
2023/02/18 01:54:46;;;;;;;5.10;1.90;;;;;;;8.04;77.31;100069.04;186517;1234;43880;-89
2023/02/18 01:58:50;;;;;;;1.10;0.60;;;;;;;8.00;77.32;100077.84;186318;1233;58122;-89
2023/02/18 02:02:53;;;;;;;2.70;0.50;;;;;;;7.85;77.30;100078.17;186373;1233;43701;-89
2023/02/18 02:07:16;;;;;;;6.70;1.00;;;;;;;7.83;73.29;100080.96;186216;1233;43746;-89
2023/02/18 02:11:52;;;;;;;6.10;1.70;;;;;;;7.91;73.50;100082.38;186232;1233;44086;-89
2023/02/18 02:16:10;;;;;;;2.20;1.10;;;;;;;7.77;73.83;100092.59;186272;1233;44029;-88
2023/02/18 02:20:24;;;;;;;1.70;1.00;;;;;;;7.58;73.73;100088.63;186334;1234;57640;-87
2023/02/18 02:25:14;;;;;;;0.70;0.40;;;;;;;7.50;73.77;100092.37;186400;1233;44085;-87
2023/02/18 02:29:31;;;;;;;1.30;0.50;;;;;;;7.36;73.91;100096.58;185205;1241;43937;-88
2023/02/18 02:34:04;;;;;;;1.50;0.30;;;;;;;7.45;71.37;100086.92;185287;1241;43724;-88
2023/02/18 02:38:20;;;;;;;2.40;0.80;;;;;;;7.45;72.04;100089.17;185238;1242;43948;-87
2023/02/18 02:42:51;;;;;;;1.60;0.90;;;;;;;7.33;72.81;100098.48;185162;1241;58535;-88
2023/02/18 02:47:03;;;;;;;6.90;1.60;;;;;;;7.16;73.88;100105.14;185258;1241;44387;-88
2023/02/18 02:51:05;;;;;;;2.40;0.90;;;;;;;7.18;71.35;100098.02;185151;1242;43772;-88
2023/02/18 02:55:11;;;;;;;1.10;0.50;;;;;;;7.26;70.52;100095.83;185371;1241;43871;-87
2023/02/18 02:59:24;;;;;;;1.20;0.60;;;;;;;7.32;70.97;100103.19;185300;1241;44185;-87
2023/02/18 03:03:38;;;;;;;3.90;0.90;;;;;;;7.23;71.86;100104.36;185663;1234;58378;-88
2023/02/18 03:08:02;;;;;;;1.80;0.40;;;;;;;7.13;71.23;100104.45;186345;1233;43679;-88
2023/02/18 03:12:59;;;;;;;4.50;1.00;;;;;;;7.17;70.99;100101.22;186482;1233;44024;-90
2023/02/18 03:17:10;;;;;;;1.50;0.90;;;;;;;7.18;71.13;100111.58;185535;1241;43945;-89
2023/02/18 03:21:36;;;;;;;0.70;0.50;;;;;;;7.09;70.34;100106.70;185256;1240;44125;-88
2023/02/18 03:25:39;;;;;;;2.70;0.70;;;;;;;7.04;71.16;100116.95;185415;1240;59005;-89
2023/02/18 03:29:44;;;;;;;1.70;0.90;;;;;;;6.95;71.76;100122.65;185318;1240;44154;-88
2023/02/18 03:33:54;;;;;;;2.30;1.20;;;;;;;6.92;72.32;100126.91;185332;1240;43680;-87
2023/02/18 03:38:08;;;;;;;1.30;0.40;;;;;;;6.82;72.79;100126.39;185309;1240;43765;-88
2023/02/18 03:42:11;;;;;;;10.50;2.00;;;;;;;6.84;71.56;100120.23;184895;1241;600361;-87
2023/02/18 03:46:13;;;;;;;2.50;0.80;;;;;;;6.86;72.40;100118.50;185496;1240;58921;-89
2023/02/18 03:50:15;;;;;;;2.40;0.40;;;;;;;6.74;72.83;100118.64;185795;1233;44167;-88
2023/02/18 03:54:17;;;;;;;2.30;0.50;;;;;;;6.74;72.23;100123.23;186336;1233;43682;-88
2023/02/18 03:58:19;;;;;;;3.40;0.60;;;;;;;6.84;72.03;100132.06;186279;1234;44058;-88
2023/02/18 04:02:22;;;;;;;2.30;1.00;;;;;;;6.86;72.57;100136.52;186172;1233;43607;-89
2023/02/18 04:06:24;;;;;;;3.00;0.80;;;;;;;6.84;73.64;100138.76;186290;1233;58001;-88
2023/02/18 04:10:26;;;;;;;2.70;0.80;;;;;;;6.80;74.84;100144.30;186154;1234;43728;-87
2023/02/18 04:14:30;;;;;;;2.50;0.50;;;;;;;6.81;74.83;100145.30;186342;1233;43713;-88
2023/02/18 04:18:32;;;;;;;3.20;1.60;;;;;;;6.87;74.06;100145.23;186277;1233;43669;-88
2023/02/18 04:22:35;;;;;;;0.60;0.60;;;;;;;6.99;73.07;100157.99;186451;1233;43686;-88
2023/02/18 04:26:37;;;;;;;8.90;1.50;;;;;;;7.08;73.25;100160.23;186381;1234;58168;-90
2023/02/18 04:30:39;;;;;;;7.60;1.00;;;;;;;7.15;72.04;100154.23;186661;1233;43920;-89
2023/02/18 04:34:41;;;;;;;2.60;1.20;;;;;;;7.21;72.01;100163.21;186312;1234;43970;-88
2023/02/18 04:38:44;;;;;;;2.70;0.80;;;;;;;7.27;71.10;100155.35;186352;1234;43973;-89
2023/02/18 04:42:46;;;;;;;2.00;0.80;;;;;;;7.32;71.27;100153.80;186291;1233;43734;-90
2023/02/18 04:46:48;;;;;;;1.10;0.70;;;;;;;7.36;71.53;100160.77;186334;1233;58149;-89
2023/02/18 04:50:50;;;;;;;4.40;0.60;;;;;;;7.31;71.15;100160.73;186308;1233;43775;-90
2023/02/18 04:54:52;;;;;;;7.30;1.30;;;;;;;7.28;71.36;100160.98;186321;1234;43949;-90
2023/02/18 04:58:55;;;;;;;1.60;0.90;;;;;;;7.32;69.19;100141.46;186193;1233;43943;-88
2023/02/18 05:02:58;;;;;;;1.20;0.30;;;;;;;7.42;69.00;100146.59;186391;1234;43923;-88
2023/02/18 05:07:00;;;;;;;1.20;0.50;;;;;;;7.54;67.87;100144.53;186282;1234;60255;-89
2023/02/18 05:11:08;;;;;;;1.40;0.70;;;;;;;7.62;68.50;100149.91;186645;1234;43755;-89
2023/02/18 05:15:10;;;;;;;3.90;1.10;;;;;;;7.60;68.92;100149.58;186295;1233;43969;-89
2023/02/18 05:19:16;;;;;;;3.30;1.20;;;;;;;7.56;68.52;100148.95;186265;1233;43992;-89
2023/02/18 05:23:20;;;;;;;0.70;0.60;;;;;;;7.58;68.63;100135.05;186320;1233;43990;-88
2023/02/18 05:27:22;;;;;;;2.20;0.90;;;;;;;7.58;67.73;100151.59;186623;1233;59412;-89
2023/02/18 05:31:24;;;;;;;1.80;0.60;;;;;;;7.63;68.53;100157.13;186311;1234;43915;-88
2023/02/18 05:35:27;;;;;;;1.20;0.40;;;;;;;7.59;68.24;100158.11;186313;1233;44007;-89
2023/02/18 05:39:30;;;;;;;1.50;0.60;;;;;;;7.56;68.62;100170.48;186254;1233;43942;-88
2023/02/18 05:44:29;;;;;;;2.80;0.70;;;;;;;7.60;68.55;100174.45;186184;1234;43634;-88
2023/02/18 05:47:56;;;;;;;5.20;1.10;;;;;;;7.56;68.79;100177.70;186503;1233;57182;-88
2023/02/18 05:51:58;;;;;;;3.00;0.60;;;;;;;7.53;69.52;100174.56;186272;1234;43808;-88
2023/02/18 05:56:00;;;;;;;1.80;0.70;;;;;;;7.45;70.00;100185.21;186302;1233;43881;-88
2023/02/18 06:00:05;;;;;;;2.20;0.90;;;;;;;7.45;69.30;100181.67;186326;1234;43824;-89
2023/02/18 06:04:07;;;;;;;0.90;0.70;;;;;;;7.48;68.91;100167.53;186348;1234;44094;-89
2023/02/18 06:08:09;;;;;;;2.50;0.90;;;;;;;7.46;69.54;100166.78;186338;1233;58616;-89
2023/02/18 06:12:11;;;;;;;2.70;0.80;;;;;;;7.45;69.34;100159.58;186373;1233;43681;-89
2023/02/18 06:16:13;;;;;;;1.40;0.80;;;;;;;7.44;70.66;100164.63;186196;1233;43722;-89
2023/02/18 06:20:16;;;;;;;3.80;0.90;;;;;;;7.44;70.78;100162.86;186887;1233;43772;-89
2023/02/18 06:24:18;;;;;;;1.80;0.50;;;;;;;7.45;71.08;100163.87;186474;1234;43717;-90
2023/02/18 06:28:20;;;;;;;1.10;0.50;;;;;;;7.48;70.87;100163.77;186489;1233;58372;-90
2023/02/18 06:32:23;;;;;;;2.30;0.70;;;;;;;7.50;70.52;100160.98;186362;1234;43946;-91
2023/02/18 06:36:25;;;;;;;1.30;0.40;;;;;;;7.60;69.12;100152.92;186314;1234;43669;-88
2023/02/18 06:40:27;;;;;;;5.30;0.70;;;;;;;7.68;68.67;100156.02;186209;1233;44419;-89
2023/02/18 06:44:30;;;;;;;2.50;0.80;;;;;;;7.78;68.51;100160.27;186260;1234;44061;-89
2023/02/18 06:48:32;;;;;;;3.30;0.90;;;;;;;7.79;68.39;100158.41;186393;1233;57812;-89
2023/02/18 06:52:36;;;;;;;2.00;0.60;;;;;;;7.83;68.53;100166.45;186252;1233;44002;-89
2023/02/18 06:56:39;;;;;;;1.00;0.50;;;;;;;7.84;68.15;100168.64;186397;1234;43677;-89
2023/02/18 07:00:41;;;;;;;2.80;0.60;;;;;;;7.89;67.90;100164.95;186314;1233;44060;-90
2023/02/18 07:04:45;;;;;;;1.80;0.80;;;;;;;7.96;67.81;100159.32;186357;1234;43644;-90
2023/02/18 07:08:47;;;;;;;1.00;0.40;;;;;;;8.03;67.82;100154.40;186356;1233;60469;-90
2023/02/18 07:12:49;;;;;;;3.80;0.90;;;;;;;8.10;68.10;100156.72;186197;1234;43691;-87
2023/02/18 07:16:51;;;;;;;1.10;0.90;;;;;;;8.13;68.21;100165.17;186218;1233;44113;-86
2023/02/18 07:20:53;;;;;;;0.80;0.60;;;;;;;8.12;68.28;100167.52;186458;1233;44052;-85
2023/02/18 07:24:55;;;;;;;0.40;0.40;;;;;;;8.19;67.94;100168.48;186203;1234;44018;-86
2023/02/18 07:28:57;;;;;;;0.40;0.40;;;;;;;8.24;68.18;100177.96;186258;1234;59512;-85
2023/02/18 07:32:59;;;;;;;8.30;1.30;;;;;;;8.26;67.86;100177.48;186248;1234;44045;-86
2023/02/18 07:37:07;;;;;;;4.50;1.20;;;;;;;8.33;68.86;100182.61;186295;1234;43699;-86
2023/02/18 07:41:18;;;;;;;3.00;0.80;;;;;;;8.35;67.67;100179.49;186180;1234;43664;-85
2023/02/18 07:45:20;;;;;;;1.40;0.50;;;;;;;8.41;69.02;100193.09;186268;1233;43994;-85
2023/02/18 07:49:22;;;;;;;2.40;0.50;;;;;;;8.38;69.34;100200.59;186246;1234;59573;-86
2023/02/18 07:53:25;;;;;;;3.80;1.50;;;;;;;8.42;69.14;100206.52;186212;1233;43872;-85
2023/02/18 07:57:27;;;;;;;2.50;1.30;;;;;;;8.44;69.61;100197.16;186442;1234;43686;-86
2023/02/18 08:01:29;;;;;;;2.70;1.00;;;;;;;8.54;70.67;100204.64;186527;1234;44158;-86
2023/02/18 08:05:31;;;;;;;2.20;1.40;;;;;;;8.54;71.02;100209.20;186419;1234;43627;-85
2023/02/18 08:09:33;;;;;;;2.50;1.00;;;;;;;8.60;71.45;100211.91;186243;1233;59263;-86
2023/02/18 08:13:37;;;;;;;4.50;1.60;;;;;;;8.61;71.57;100208.52;186621;1233;44106;-85
2023/02/18 08:17:40;;;;;;;0.90;0.70;;;;;;;8.60;70.01;100209.95;186416;1234;43994;-85
2023/02/18 08:21:42;;;;;;;4.40;1.40;;;;;;;8.70;70.17;100209.59;186250;1233;43836;-85
2023/02/18 08:25:46;;;;;;;3.90;0.70;;;;;;;8.76;70.08;100208.52;186103;1234;43656;-85
2023/02/18 08:29:52;;;;;;;1.90;0.70;;;;;;;8.79;66.30;100205.41;186244;1233;58079;-86
2023/02/18 08:33:56;;;;;;;1.30;0.70;;;;;;;8.80;65.06;100206.41;186292;1234;43920;-85
2023/02/18 08:37:59;;;;;;;3.10;1.30;;;;;;;8.84;65.96;100206.23;186313;1233;43820;-84
2023/02/18 08:42:01;;;;;;;1.60;1.00;;;;;;;8.89;68.63;100207.30;186386;1234;44073;-85
2023/02/18 08:46:04;;;;;;;2.00;1.50;;;;;;;8.85;67.97;100201.27;186220;1233;43663;-85
2023/02/18 08:50:07;;;;;;;5.90;1.90;;;;;;;8.86;70.45;100204.01;186564;1233;59407;-85
2023/02/18 08:54:09;;;;;;;1.90;1.20;;;;;;;8.80;71.35;100203.36;186479;1234;43697;-86
2023/02/18 08:58:11;;;;;;;6.60;1.80;;;;;;;8.79;70.67;100197.09;186185;1234;43954;-87
2023/02/18 09:02:14;;;;;;;3.70;0.90;;;;;;;8.79;68.73;100193.04;186515;1234;43807;-84
2023/02/18 09:06:15;;;;;;;3.10;0.80;;;;;;;8.71;68.17;100196.30;186124;1233;44095;-85
2023/02/18 09:10:17;;;;;;;2.70;1.00;;;;;;;8.66;67.40;100198.58;186373;1234;58170;-85
2023/02/18 09:14:20;;;;;;;2.90;1.00;;;;;;;8.56;67.98;100193.52;186288;1233;43768;-85
2023/02/18 09:18:23;;;;;;;0.90;0.60;;;;;;;8.57;68.95;100195.36;186191;1234;43917;-85
2023/02/18 09:22:25;;;;;;;1.70;0.80;;;;;;;8.47;73.06;100203.47;186219;1234;44023;-85
2023/02/18 09:26:26;;;;;;;8.70;1.40;;;;;;;8.37;76.65;100200.53;186147;1234;43966;-85
2023/02/18 09:30:28;;;;;;;2.30;0.90;;;;;;;8.17;79.56;100180.91;186160;1233;60129;-85
2023/02/18 09:34:31;;;;;;;3.50;1.00;;;;;;;8.20;83.42;100176.36;186416;1234;43986;-85
2023/02/18 09:38:33;;;;;;;4.80;0.90;;;;;;;8.06;86.09;100187.57;186491;1234;43658;-85
2023/02/18 09:42:35;;;;;;;2.70;2.00;;;;;;;7.89;89.51;100184.00;186272;1234;43998;-85
2023/02/18 09:46:50;;;;;;;1.80;1.40;;;;;;;7.79;90.80;100182.45;186401;1234;43698;-85
2023/02/18 09:50:53;;;;;;;1.70;1.20;;;;;;;7.78;93.12;100176.69;186255;1234;57792;-84
2023/02/18 09:54:55;;;;;;;3.30;0.80;;;;;;;7.88;92.27;100171.38;186422;1233;44145;-88
2023/02/18 09:59:03;;;;;;;4.40;1.30;;;;;;;7.85;92.70;100173.36;186192;1235;43912;-88
2023/02/18 10:03:13;;;;;;;9.90;2.70;;;;;;;7.85;93.46;100170.92;186256;1237;44580;-87
2023/02/18 10:07:26;;;;;;;4.10;1.50;;;;;;;7.73;93.87;100163.77;186210;1234;43791;-87
2023/02/18 10:11:34;;;;;;;6.00;2.30;;;;;;;7.71;96.65;100160.09;186257;1234;57855;-88
2023/02/18 10:15:37;;;;;;;5.60;3.00;;;;;;;7.74;97.23;100155.64;186340;1234;43590;-88
2023/02/18 10:19:40;;;;;;;4.40;1.50;;;;;;;7.70;96.11;100143.19;186106;1235;44007;-87
2023/02/18 10:24:12;;;;;;;6.10;2.20;;;;;;;7.74;95.15;100129.09;186276;1234;43705;-87
2023/02/18 10:28:17;;;;;;;5.40;2.10;;;;;;;7.80;96.42;100117.07;185243;1241;44110;-88
2023/02/18 10:32:26;;;;;;;7.70;1.60;;;;;;;7.85;96.00;100115.79;185139;1241;58075;-88
2023/02/18 10:36:45;;;;;;;4.90;1.90;;;;;;;7.96;96.40;100108.11;185347;1242;43983;-87
2023/02/18 10:40:46;;;;;;;7.80;2.20;;;;;;;8.08;96.49;100091.68;185229;1241;44204;-88
2023/02/18 10:44:57;;;;;;;3.40;1.50;;;;;;;8.13;95.33;100084.08;185318;1243;43740;-89
2023/02/18 10:49:03;;;;;;;5.70;2.40;;;;;;;8.28;95.78;100075.38;185080;1241;44014;-86
2023/02/18 10:53:24;;;;;;;;;;;;;;;8.46;95.10;100060.11;185088;1241;59445;-89
2023/02/18 10:57:27;;;;;;;7.30;2.90;;;;;;;8.69;94.00;100039.31;185317;1241;43729;-86
2023/02/18 11:01:30;;;;;;;4.80;2.30;;;;;;;8.87;92.67;100027.92;185079;1242;43836;-85
2023/02/18 11:05:34;;;;;;;5.70;2.10;;;;;;;9.06;92.86;100019.56;185945;1234;43975;-85
2023/02/18 11:09:46;;;;;;;13.60;2.60;;;;;;;9.25;92.62;100009.77;186194;1237;43609;-85
2023/02/18 11:13:54;;;;;;;6.90;3.20;;;;;;;9.32;92.03;99997.20;186424;1234;58021;-85
2023/02/18 11:18:10;;;;;;;6.30;3.70;;;;;;;9.35;91.97;99977.67;186110;1234;43791;-85
2023/02/18 11:22:23;;;;;;;5.30;2.90;;;;;;;9.42;93.32;99959.35;186185;1234;43997;-85
2023/02/18 11:26:35;;;;;;;8.90;3.50;;;;;;;9.47;93.93;99948.31;186192;1234;43985;-85
2023/02/18 11:30:45;;;;;;;6.50;2.70;;;;;;;9.49;95.86;99931.89;185981;1234;44132;-85
2023/02/18 11:34:49;;;;;;;6.80;3.20;;;;;;;9.44;96.95;99920.61;186230;1237;59309;-85
2023/02/18 11:39:05;;;;;;;10.00;3.10;;;;;;;9.42;95.88;99899.36;186286;1234;43686;-85
2023/02/18 11:43:14;;;;;;;8.70;3.80;;;;;;;9.51;96.55;99885.34;186195;1234;43999;-85
2023/02/18 11:47:16;;;;;;;10.90;4.10;;;;;;;9.57;96.97;99886.08;186535;1234;43956;-85
2023/02/18 11:51:35;;;;;;;16.30;2.80;;;;;;;9.62;97.11;99875.41;186513;1235;43681;-85
2023/02/18 11:55:37;;;;;;;4.20;3.30;;;;;;;9.52;97.67;99864.16;186303;1233;59449;-85
2023/02/18 11:59:39;;;;;;;9.00;4.40;;;;;;;9.42;98.77;99852.08;186169;1235;43947;-85
2023/02/18 12:03:55;;;;;;;7.10;3.40;;;;;;;9.24;100.00;99839.74;186209;1233;43967;-85
2023/02/18 12:08:02;;;;;;;9.30;5.90;;;;;;;9.15;100.00;99828.90;186213;1233;43913;-85
2023/02/18 12:12:14;;;;;;;8.70;3.90;;;;;;;9.08;100.00;99810.52;186254;1235;43643;-85
2023/02/18 12:16:26;;;;;;;5.00;3.40;;;;;;;9.08;100.00;99802.36;186093;1234;58110;-86
2023/02/18 12:20:42;;;;;;;6.50;3.50;;;;;;;9.05;100.00;99794.54;186497;1235;43990;-85
2023/02/18 12:25:02;;;;;;;4.80;3.40;;;;;;;9.02;100.00;99780.08;186570;1234;43941;-86
2023/02/18 12:29:31;;;;;;;11.90;5.50;;;;;;;9.08;100.00;99769.18;186302;1234;43843;-85
2023/02/18 12:33:44;;;;;;;9.10;4.60;;;;;;;9.11;100.00;99757.05;186337;1233;43666;-85
2023/02/18 12:38:01;;;;;;;8.40;4.10;;;;;;;9.19;100.00;99747.83;186474;1234;58304;-85
2023/02/18 12:42:21;;;;;;;17.10;11.00;;;;;;;9.14;100.00;99724.21;186292;1234;44039;-85
2023/02/18 12:46:33;;;;;;;9.60;6.10;;;;;;;9.18;100.00;99721.76;186323;1234;43710;-85
2023/02/18 12:50:42;;;;;;;15.00;7.20;;;;;;;9.11;100.00;99704.08;186369;1235;43962;-86
2023/02/18 12:55:13;;;;;;;11.20;7.80;;;;;;;9.10;100.00;99695.04;186592;1235;43682;-85
2023/02/18 12:59:54;;;;;;;15.50;10.70;;;;;;;9.00;100.00;99681.69;186536;1234;59452;-86
2023/02/18 13:03:59;;;;;;;10.90;6.90;;;;;;;9.05;100.00;99667.72;186653;1234;43799;-87
2023/02/18 13:08:35;;;;;;;15.80;10.40;;;;;;;9.05;100.00;99656.33;186614;1235;43701;-86
2023/02/18 13:12:55;;;;;;;15.30;9.60;;;;;;;9.01;100.00;99640.25;186442;1237;43649;-87
2023/02/18 13:17:02;;;;;;;37.80;20.30;;;;;;;8.99;100.00;99626.74;186492;1236;44005;-86
2023/02/18 13:21:08;;;;;;;18.60;11.20;;;;;;;9.03;100.00;99617.98;186181;1237;59086;-86
2023/02/18 13:25:13;;;;;;;15.70;8.70;;;;;;;9.04;100.00;99613.65;186271;1233;44033;-88
2023/02/18 13:29:27;;;;;;;14.30;9.10;;;;;;;9.06;100.00;99605.15;186416;1234;44148;-86
2023/02/18 13:33:57;;;;;;;16.90;8.60;;;;;;;9.23;100.00;99600.86;186354;1233;43959;-86
2023/02/18 13:38:32;;;;;;;12.90;8.00;;;;;;;9.39;100.00;99586.94;186135;1235;44124;-88
2023/02/18 13:42:37;;;;;;;11.60;5.90;;;;;;;9.53;100.00;99573.48;186280;1235;59224;-89
2023/02/18 13:46:48;;;;;;;3.20;2.50;;;;;;;9.85;100.00;99552.91;186238;1233;43995;-85
2023/02/18 13:50:53;;;;;;;1.90;1.80;;;;;;;10.36;100.00;99535.54;186211;1233;43685;-88
2023/02/18 13:54:55;;;;;;;2.40;1.80;;;;;;;10.82;100.00;99517.48;186259;1233;44027;-88
2023/02/18 13:59:01;;;;;;;2.80;2.20;;;;;;;11.18;100.00;99511.77;186150;1235;44043;-88
2023/02/18 14:03:49;;;;;;;2.00;1.40;;;;;;;11.45;100.00;99503.50;186310;1234;59776;-86
2023/02/18 14:08:05;;;;;;;2.10;1.90;;;;;;;11.66;100.00;99488.82;186141;1233;44077;-88
2023/02/18 14:12:29;;;;;;;3.90;2.00;;;;;;;11.77;100.00;99480.10;186169;1235;44006;-86
2023/02/18 14:17:09;;;;;;;1.30;0.80;;;;;;;11.83;100.00;99480.24;186273;1233;43958;-87
2023/02/18 14:21:10;;;;;;;2.50;1.40;;;;;;;11.89;100.00;99467.01;186368;1234;44238;-87
2023/02/18 14:25:34;;;;;;;1.70;1.40;;;;;;;11.93;100.00;99457.73;186291;1233;57895;-87
2023/02/18 14:29:36;;;;;;;2.10;1.30;;;;;;;11.98;100.00;99465.44;186328;1235;44125;-87
2023/02/18 14:34:04;;;;;;;5.00;0.70;;;;;;;11.97;100.00;99455.21;186232;1234;43651;-87
2023/02/18 14:38:29;;;;;;;1.90;1.70;;;;;;;11.86;100.00;99462.89;186367;1233;43738;-87
2023/02/18 14:42:52;;;;;;;1.10;0.90;;;;;;;11.82;100.00;99461.86;186379;1235;43633;-87
2023/02/18 14:47:34;;;;;;;1.20;0.90;;;;;;;11.75;100.00;99469.48;186488;1235;59274;-86
2023/02/18 14:51:40;;;;;;;2.20;1.30;;;;;;;11.64;100.00;99465.96;186337;1233;43878;-90
2023/02/18 14:55:47;;;;;;;1.60;1.10;;;;;;;11.61;100.00;99469.46;186298;1235;44303;-89
2023/02/18 14:59:56;;;;;;;;;;;;;;;11.60;100.00;99456.91;186209;1234;44018;-90
2023/02/18 15:03:57;;;;;;;4.00;2.40;;;;;;;11.62;100.00;99462.55;186240;1235;43774;-87
2023/02/18 15:08:02;;;;;;;4.70;2.10;;;;;;;11.67;100.00;99464.05;186111;1234;57906;-87
2023/02/18 15:12:07;;;;;;;4.80;2.10;;;;;;;11.63;100.00;99468.13;186189;1233;44106;-88
2023/02/18 15:16:25;;;;;;;1.90;1.70;;;;;;;11.67;100.00;99446.41;186218;1233;44020;-86
2023/02/18 15:20:31;;;;;;;2.80;1.40;;;;;;;11.69;100.00;99466.11;186243;1234;43884;-88
2023/02/18 15:24:36;;;;;;;3.70;1.90;;;;;;;11.66;100.00;99461.15;186266;1236;44089;-89
2023/02/18 15:28:50;;;;;;;1.80;1.00;;;;;;;11.57;100.00;99454.04;186381;1235;58789;-88
2023/02/18 15:32:57;;;;;;;2.70;1.80;;;;;;;11.38;100.00;99445.27;186189;1235;43982;-88
2023/02/18 15:37:00;;;;;;;1.30;1.20;;;;;;;11.25;100.00;99462.09;186337;1233;44030;-88
2023/02/18 15:41:02;;;;;;;1.80;1.30;;;;;;;11.12;100.00;99463.73;186229;1233;43674;-88
2023/02/18 15:45:16;;;;;;;4.60;2.20;;;;;;;11.01;100.00;99470.98;186075;1234;271525;-88
2023/02/18 15:49:21;;;;;;;2.20;1.90;;;;;;;10.92;100.00;99455.38;186086;1233;57992;-89
2023/02/18 15:53:24;;;;;;;2.00;1.80;;;;;;;10.91;100.00;99444.83;186283;1233;43748;-88
2023/02/18 15:57:29;;;;;;;5.00;2.50;;;;;;;10.95;100.00;99430.77;186341;1233;43963;-88
2023/02/18 16:01:31;;;;;;;1.80;1.00;;;;;;;11.05;100.00;99435.08;186313;1233;43654;-87
2023/02/18 16:05:36;;;;;;;1.60;0.90;;;;;;;11.09;100.00;99438.08;186274;1233;44731;-88
2023/02/18 16:09:38;;;;;;;1.20;0.70;;;;;;;11.12;100.00;99426.97;186437;1234;59314;-88
2023/02/18 16:13:46;;;;;;;1.60;1.50;;;;;;;11.17;100.00;99425.57;186388;1233;43764;-88
2023/02/18 16:17:48;;;;;;;2.30;1.00;;;;;;;11.20;100.00;99412.20;186367;1234;43665;-88
2023/02/18 16:21:50;;;;;;;1.40;1.10;;;;;;;11.24;100.00;99424.25;186392;1234;43790;-88
2023/02/18 16:25:52;;;;;;;1.20;0.90;;;;;;;11.23;99.64;99440.05;186374;1233;43726;-89
2023/02/18 16:29:59;;;;;;;1.20;0.80;;;;;;;11.28;99.59;99446.92;186336;1233;57600;-88
2023/02/18 16:34:02;;;;;;;1.90;1.20;;;;;;;11.26;99.26;99436.05;186303;1233;43974;-88
2023/02/18 16:38:06;;;;;;;3.20;1.60;;;;;;;11.27;99.19;99441.15;186320;1233;44087;-88
2023/02/18 16:42:10;;;;;;;0.70;0.70;;;;;;;11.26;99.43;99471.40;186302;1233;43683;-88
2023/02/18 16:46:23;;;;;;;1.50;1.20;;;;;;;11.23;99.46;99472.06;186197;1234;44109;-88
2023/02/18 16:50:29;;;;;;;2.10;1.20;;;;;;;11.21;99.26;99469.05;186274;1234;58691;-88
2023/02/18 16:54:31;;;;;;;1.10;0.60;;;;;;;11.22;99.47;99473.36;186153;1233;44014;-88
2023/02/18 16:58:33;;;;;;;1.00;0.70;;;;;;;11.24;99.63;99497.02;186390;1234;43645;-88
2023/02/18 17:02:35;;;;;;;0.90;0.80;;;;;;;11.23;99.68;99503.64;186601;1233;43661;-89
2023/02/18 17:06:37;;;;;;;1.10;0.80;;;;;;;11.18;100.00;99492.27;186374;1233;44224;-88
2023/02/18 17:10:39;;;;;;;2.10;0.90;;;;;;;11.11;100.00;99484.73;186355;1233;58015;-88
2023/02/18 17:14:42;;;;;;;1.00;0.70;;;;;;;11.05;100.00;99512.09;186315;1233;43993;-88
2023/02/18 17:18:45;;;;;;;1.10;0.80;;;;;;;10.97;100.00;99501.31;186366;1233;43929;-88
2023/02/18 17:22:47;;;;;;;2.30;0.90;;;;;;;10.94;100.00;99498.78;186319;1236;44005;-88
2023/02/18 17:26:49;;;;;;;2.00;1.50;;;;;;;10.92;100.00;99503.05;186339;1234;43770;-88
2023/02/18 17:30:55;;;;;;;1.40;1.20;;;;;;;10.86;100.00;99517.80;186316;1234;60019;-88
2023/02/18 17:34:58;;;;;;;;;;;;;;;10.80;100.00;99511.08;186378;1234;44115;-88
2023/02/18 17:39:00;;;;;;;1.40;0.90;;;;;;;10.80;100.00;99534.20;186614;1233;43759;-88
2023/02/18 17:43:04;;;;;;;1.20;0.90;;;;;;;10.76;100.00;99518.64;186424;1233;44045;-88
2023/02/18 17:47:06;;;;;;;0.80;0.70;;;;;;;10.79;100.00;99533.55;186119;1233;43653;-88
2023/02/18 17:51:23;;;;;;;1.60;1.00;;;;;;;10.88;100.00;99550.25;186297;1234;58054;-88
2023/02/18 17:55:27;;;;;;;2.30;1.20;;;;;;;10.93;100.00;99546.03;186247;1235;44049;-88
2023/02/18 17:59:29;;;;;;;2.90;0.90;;;;;;;10.96;100.00;99550.89;186281;1233;43646;-88
2023/02/18 18:03:31;;;;;;;2.20;1.00;;;;;;;10.97;100.00;99587.36;186430;1233;43665;-88
2023/02/18 18:07:33;;;;;;;1.60;1.00;;;;;;;11.07;99.91;99563.93;186333;1233;43767;-88
2023/02/18 18:11:37;;;;;;;2.10;0.60;;;;;;;11.13;98.90;99573.13;186297;1233;58320;-88
2023/02/18 18:15:42;;;;;;;0.70;0.50;;;;;;;11.15;98.03;99574.64;186337;1233;44046;-88
2023/02/18 18:19:44;;;;;;;1.20;0.70;;;;;;;11.20;98.13;99592.88;186268;1234;43996;-88
2023/02/18 18:23:46;;;;;;;1.20;1.10;;;;;;;11.14;98.63;99580.60;186327;1233;43700;-88
2023/02/18 18:27:51;;;;;;;1.70;0.80;;;;;;;11.17;99.02;99609.45;186290;1233;43746;-88
2023/02/18 18:31:52;;;;;;;5.60;1.60;;;;;;;11.10;99.75;99612.92;186327;1233;58148;-88
2023/02/18 18:35:56;;;;;;;1.20;1.10;;;;;;;11.04;100.00;99629.27;186441;1233;43999;-87
2023/02/18 18:40:00;;;;;;;3.00;1.00;;;;;;;10.84;100.00;99651.97;186311;1234;43937;-88
2023/02/18 18:44:05;;;;;;;1.60;1.40;;;;;;;10.78;100.00;99655.98;186376;1234;44032;-88
2023/02/18 18:48:07;;;;;;;2.60;1.80;;;;;;;10.76;100.00;99673.81;186313;1233;43657;-88
2023/02/18 18:52:15;;;;;;;3.50;2.20;;;;;;;10.78;100.00;99669.84;186264;1233;58131;-88
2023/02/18 18:56:16;;;;;;;3.70;2.00;;;;;;;10.84;100.00;99685.63;186160;1233;43703;-88
2023/02/18 19:00:27;;;;;;;2.30;1.60;;;;;;;10.70;100.00;99699.67;186303;1234;43670;-88
2023/02/18 19:04:29;;;;;;;3.50;2.20;;;;;;;10.59;100.00;99686.48;186169;1233;43750;-88
2023/02/18 19:08:32;;;;;;;3.90;3.30;;;;;;;10.59;100.00;99722.26;186280;1233;43670;-88